Accueil
METAR-TAF:

METAR-TAF

Aéroports :

Nörvenich, Allemagne

Base aérienne de Nörvenich

latitude: 50-50N, longitude: 006-40E, altitude: 118 m

Observation

Le bulletin a été fait il y a 1 heure et 3 minutes, à 02:20 UTC
Vent 6 kt de sud/sud-est
Température 10°C
Humidité 93%
Pression 1012 hPa
Visibilité 10 km ou plus
Quelques nuages à une hauteur de 9000 ft

METAR: ETNN 190220Z 15006KT 9999 FEW090 10/09 Q1012 BLU+

Heure: 05:23 (03:23 UTC)

Prévision

Le bulletin a été fait il y a 8 heures et 40 minutes, à 18:43 UTC
Prévision valable du 18 à 14 UTC au 18 à 23 UTC
Vent 3 kt de direction variable
Visibilité 10 km ou plus
Quelques nuages à une hauteur de 22000 ft

TAF: ETNN 181843Z 1814/1823 VRB03KT 9999 NSW FEW220 CANCEL BY ETGL

Observations et prévisions météorologiques de plus de 4000 aéroports (messages METAR et TAF).

Les stations disponibles sont représentées par des disques jaunes et rouges sur la carte.

Passer la souris dessus pour voir le nom de la station.

Cliquer dessus pour voir les observations et prévisions météorologiques.

Pour changer de carte: cliquez sur les boutons verts avec une croix noire pour zoomer, sur le bouton vert avec un tiret pour effectuer un zoom arrière, ou sur les flèches vertes pour les cartes adjacentes.


METAR-TAF: